Time;durP1;ratioP1;P1;durP2;ratioP2;P2;SDS_P1;SDS_P2;PMS_P1;PMS_P2;Temp;Humidity;BMP_temperature;BMP_pressure;BME280_temperature;BME280_humidity;BME280_pressure;Samples;Min_cycle;Max_cycle;Signal;HPM_P1;HPM_P2
2022/02/18 00:01:42;;;;;;;8.00;1.83;;;;;;;-145.06;0.00;60892.56;4848873;28;20037;-87
2022/02/18 00:04:21;;;;;;;4.70;1.80;;;;;;;-145.06;0.00;60892.56;4836545;28;20041;-88
2022/02/18 00:07:00;;;;;;;8.05;2.10;;;;;;;-145.06;0.00;60892.56;4830691;28;20109;-88
2022/02/18 00:09:39;;;;;;;5.93;1.83;;;;;;;-145.06;0.00;60892.56;4838101;28;20026;-88
2022/02/18 00:12:18;;;;;;;11.03;1.90;;;;;;;-145.06;0.00;60892.56;4836399;28;20030;-88
2022/02/18 00:14:57;;;;;;;6.75;2.00;;;;;;;8.08;0.00;60892.56;4832630;28;20608;-88
2022/02/18 00:17:38;;;;;;;7.55;1.77;;;;;;;8.07;0.00;60892.56;4836835;28;20480;-88
2022/02/18 00:20:17;;;;;;;8.55;2.15;;;;;;;-145.06;0.00;60892.56;4840126;28;20495;-89
2022/02/18 00:22:57;;;;;;;4.47;1.65;;;;;;;-145.06;0.00;60892.56;4836977;28;20038;-88
2022/02/18 00:25:36;;;;;;;8.27;2.00;;;;;;;-145.06;0.00;60892.56;4835693;28;20045;-87
2022/02/18 00:28:17;;;;;;;7.13;1.77;;;;;;;-145.06;0.00;60892.56;4835057;28;20038;-87
2022/02/18 00:30:57;;;;;;;7.10;1.92;;;;;;;8.19;0.00;60892.56;4829926;28;20034;-88
2022/02/18 00:33:37;;;;;;;6.97;2.10;;;;;;;-145.06;0.00;60892.56;4828306;28;20041;-87
2022/02/18 00:36:16;;;;;;;4.95;1.50;;;;;;;-145.06;0.00;60892.56;4836789;28;20033;-88
2022/02/18 00:38:54;;;;;;;6.25;2.08;;;;;;;-145.06;0.00;60892.56;4838468;28;20033;-88
2022/02/18 00:41:33;;;;;;;5.80;1.73;;;;;;;-145.06;0.00;60892.56;4837846;28;20396;-87
2022/02/18 00:44:12;;;;;;;5.88;1.80;;;;;;;-145.06;0.00;60892.56;4855773;28;20491;-88
2022/02/18 00:46:52;;;;;;;9.73;2.20;;;;;;;-145.06;0.00;60892.56;4837031;28;20042;-88
2022/02/18 00:49:31;;;;;;;8.18;2.08;;;;;;;-145.06;0.00;60892.56;4844859;28;20034;-87
2022/02/18 00:52:11;;;;;;;10.35;2.03;;;;;;;-145.06;0.00;60892.56;4822605;28;20034;-88
2022/02/18 00:54:50;;;;;;;7.30;1.83;;;;;;;-145.06;0.00;60892.56;4822314;28;20061;-88
2022/02/18 00:57:29;;;;;;;6.50;1.60;;;;;;;-145.06;0.00;60892.56;4825242;28;20057;-88
2022/02/18 01:00:10;;;;;;;6.30;1.67;;;;;;;-145.06;0.00;60892.56;4836334;28;20038;-88
2022/02/18 01:02:49;;;;;;;4.95;1.20;;;;;;;-145.06;0.00;60892.56;4830860;28;20289;-88
2022/02/18 01:05:29;;;;;;;4.55;1.50;;;;;;;8.40;0.00;60892.56;4839104;28;20725;-88
2022/02/18 01:08:08;;;;;;;4.45;1.15;;;;;;;-145.06;0.00;60892.56;4846310;28;20042;-88
2022/02/18 01:10:48;;;;;;;4.22;1.30;;;;;;;-145.06;0.00;60892.56;4855794;28;20026;-87
2022/02/18 01:13:28;;;;;;;5.07;1.63;;;;;;;-145.06;0.00;60892.56;4845162;28;20487;-87
2022/02/18 01:16:07;;;;;;;;;;;;;;;-145.06;0.00;60892.56;4838417;28;20109;-87
2022/02/18 01:18:46;;;;;;;3.50;1.17;;;;;;;-145.06;0.00;60892.56;4848907;28;19921;-88
2022/02/18 01:21:25;;;;;;;4.47;1.30;;;;;;;-145.06;0.00;60892.56;4832933;28;20038;-86
2022/02/18 01:24:05;;;;;;;5.57;1.42;;;;;;;-145.06;0.00;60892.56;4833588;28;20117;-88
2022/02/18 01:26:44;;;;;;;4.90;1.50;;;;;;;-145.06;0.00;60892.56;4827669;28;20030;-88
2022/02/18 01:29:23;;;;;;;1.92;1.05;;;;;;;-145.06;0.00;60892.56;4836862;28;20042;-88
2022/02/18 01:32:02;;;;;;;6.07;1.63;;;;;;;-145.06;0.00;60892.56;4838626;28;20029;-87
2022/02/18 01:34:42;;;;;;;3.40;1.23;;;;;;;-145.06;0.00;60892.56;4829660;28;20385;-88
2022/02/18 01:37:20;;;;;;;5.00;1.23;;;;;;;-145.06;0.00;60892.56;4834063;28;20073;-89
2022/02/18 01:40:00;;;;;;;2.53;1.00;;;;;;;-145.06;0.00;60892.56;4835545;28;20304;-88
2022/02/18 01:42:38;;;;;;;5.47;1.20;;;;;;;-145.06;0.00;60892.56;4851610;28;20030;-87
2022/02/18 01:45:18;;;;;;;3.90;1.60;;;;;;;-145.06;0.00;60892.56;4825311;28;20034;-88
2022/02/18 01:47:57;;;;;;;3.42;1.35;;;;;;;-145.06;0.00;60892.56;4838484;28;20501;-88
2022/02/18 01:50:36;;;;;;;4.50;1.25;;;;;;;-145.06;0.00;60892.56;4839145;28;20037;-87
2022/02/18 01:53:15;;;;;;;4.28;1.02;;;;;;;-145.06;0.00;60892.56;4826782;28;20026;-88
2022/02/18 01:55:55;;;;;;;4.00;1.33;;;;;;;-145.06;0.00;60892.56;4844208;28;20033;-87
2022/02/18 01:58:34;;;;;;;;;;;;;;;-145.06;0.00;60892.56;4844156;28;20041;-88
2022/02/18 02:01:14;;;;;;;4.00;1.00;;;;;;;-145.06;0.00;60892.56;4863345;28;19913;-88
2022/02/18 02:03:53;;;;;;;;;;;;;;;-145.06;0.00;60892.56;4845090;28;20072;-88
2022/02/18 02:06:33;;;;;;;3.37;1.00;;;;;;;-145.06;0.00;60892.56;4835063;28;19957;-88
2022/02/18 02:09:15;;;;;;;;;;;;;;;-145.06;0.00;60892.56;4833362;28;20268;-87
2022/02/18 02:11:54;;;;;;;3.40;1.02;;;;;;;-145.06;0.00;60892.56;4830299;28;20371;-88
2022/02/18 02:14:33;;;;;;;4.45;1.00;;;;;;;-145.06;0.00;60892.56;4842140;28;20034;-88
2022/02/18 02:17:12;;;;;;;2.65;0.90;;;;;;;-145.06;0.00;60892.56;4839595;28;20029;-88
2022/02/18 02:19:51;;;;;;;3.43;0.87;;;;;;;-145.06;0.00;60892.56;4839635;28;20037;-88
2022/02/18 02:22:30;;;;;;;3.80;1.10;;;;;;;-145.06;0.00;60892.56;4835786;28;20487;-88
2022/02/18 02:25:09;;;;;;;5.05;1.60;;;;;;;-145.06;0.00;60892.56;4853786;28;20684;-88
2022/02/18 02:27:48;;;;;;;5.65;1.52;;;;;;;-145.06;0.00;60892.56;4843151;28;20038;-88
2022/02/18 02:30:28;;;;;;;3.33;1.10;;;;;;;-145.06;0.00;60892.56;4847828;28;20077;-86
2022/02/18 02:33:07;;;;;;;4.93;1.27;;;;;;;-145.06;0.00;60892.56;4838267;28;20297;-87
2022/02/18 02:35:45;;;;;;;4.93;1.52;;;;;;;-145.06;0.00;60892.56;4832680;28;20277;-88
2022/02/18 02:38:24;;;;;;;6.00;1.50;;;;;;;-145.06;0.00;60892.56;4845988;28;20033;-87
2022/02/18 02:41:03;;;;;;;2.63;1.08;;;;;;;8.75;0.00;60892.56;4851282;28;20038;-88
2022/02/18 02:43:42;;;;;;;1.93;0.97;;;;;;;-145.06;0.00;60892.56;4830293;28;20034;-88
2022/02/18 02:46:21;;;;;;;5.57;1.20;;;;;;;-145.06;0.00;60892.56;4839035;28;20033;-87
2022/02/18 02:49:00;;;;;;;2.57;1.00;;;;;;;-145.06;0.00;60892.56;4843071;28;20041;-88
2022/02/18 02:51:39;;;;;;;3.33;0.90;;;;;;;-145.06;0.00;60892.56;4847289;28;20276;-88
2022/02/18 02:54:18;;;;;;;2.33;0.70;;;;;;;8.90;0.00;60892.56;4834371;28;20034;-88
2022/02/18 02:56:57;;;;;;;2.75;0.70;;;;;;;-145.06;0.00;60892.56;4839411;28;20065;-87
2022/02/18 02:59:36;;;;;;;2.67;0.90;;;;;;;-145.06;0.00;60892.56;4825560;28;20038;-88
2022/02/18 03:02:15;;;;;;;3.17;1.00;;;;;;;-145.06;0.00;60892.56;4828334;28;20057;-88
2022/02/18 03:04:54;;;;;;;3.35;0.80;;;;;;;-145.06;0.00;60892.56;4835092;28;20440;-88
2022/02/18 03:07:33;;;;;;;3.87;1.20;;;;;;;8.82;0.00;60892.56;4829632;28;20485;-87
2022/02/18 03:10:12;;;;;;;4.10;1.27;;;;;;;-145.06;0.00;60892.56;4832725;28;20117;-88
2022/02/18 03:12:51;;;;;;;3.00;1.00;;;;;;;-145.06;0.00;60892.56;4833582;28;20034;-87
2022/02/18 03:15:31;;;;;;;1.52;0.82;;;;;;;187.52;0.00;60892.56;4839095;28;20112;-88
2022/02/18 03:18:09;;;;;;;3.88;0.90;;;;;;;-145.06;0.00;60892.56;4837153;28;20108;-88
2022/02/18 03:20:49;;;;;;;2.30;0.90;;;;;;;-145.06;0.00;60892.56;4834502;28;20034;-88
2022/02/18 03:23:28;;;;;;;3.30;1.10;;;;;;;-145.06;0.00;60892.56;4826453;28;20265;-87
2022/02/18 03:26:07;;;;;;;1.30;0.80;;;;;;;-145.06;0.00;60892.56;4830336;28;20376;-88
2022/02/18 03:28:46;;;;;;;2.08;0.80;;;;;;;-145.06;0.00;60892.56;4838076;28;20038;-88
2022/02/18 03:31:25;;;;;;;2.22;0.75;;;;;;;-145.06;0.00;60892.56;4838133;28;20026;-88
2022/02/18 03:34:04;;;;;;;3.70;0.65;;;;;;;-145.06;0.00;60892.56;4830025;28;20042;-87
2022/02/18 03:36:43;;;;;;;2.30;0.85;;;;;;;-145.06;0.00;60892.56;4833013;28;20023;-88
2022/02/18 03:39:22;;;;;;;2.73;0.87;;;;;;;-145.06;0.00;60892.56;4851126;28;20377;-88
2022/02/18 03:42:01;;;;;;;2.50;0.80;;;;;;;-145.06;0.00;60892.56;4836251;28;20026;-88
2022/02/18 03:44:40;;;;;;;7.55;1.00;;;;;;;-145.06;0.00;60892.56;4835983;28;20499;-88
2022/02/18 03:47:19;;;;;;;3.65;0.90;;;;;;;-145.06;0.00;60892.56;4840950;28;20033;-87
2022/02/18 03:49:58;;;;;;;2.50;0.93;;;;;;;-145.06;0.00;60892.56;4824825;28;20105;-88
2022/02/18 03:52:37;;;;;;;1.70;0.73;;;;;;;-145.06;0.00;60892.56;4825566;28;20261;-88
2022/02/18 03:55:16;;;;;;;0.57;0.40;;;;;;;-145.06;0.00;60892.56;4850039;28;20038;-88
2022/02/18 03:57:56;;;;;;;1.37;0.50;;;;;;;-145.06;0.00;60892.56;4852511;28;20029;-87
2022/02/18 04:00:36;;;;;;;2.22;0.82;;;;;;;-145.06;0.00;60892.56;4833343;28;20033;-87
2022/02/18 04:03:15;;;;;;;2.00;0.60;;;;;;;-145.06;0.00;60892.56;4835160;28;20065;-88
2022/02/18 04:05:53;;;;;;;0.77;0.43;;;;;;;-145.06;0.00;60892.56;4836140;28;20042;-87
2022/02/18 04:08:32;;;;;;;0.80;0.43;;;;;;;-145.06;0.00;60892.56;4831894;28;20281;-88
2022/02/18 04:11:11;;;;;;;1.48;0.75;;;;;;;21.08;0.00;60892.56;4836085;28;20022;-87
2022/02/18 04:13:50;;;;;;;1.93;0.80;;;;;;;-145.06;0.00;60892.56;4828530;28;20671;-87
2022/02/18 04:16:29;;;;;;;1.55;0.70;;;;;;;-145.06;0.00;60892.56;4843553;28;20038;-88
2022/02/18 04:19:08;;;;;;;3.00;0.63;;;;;;;8.98;0.00;60892.56;4837102;28;20037;-88
2022/02/18 04:21:48;;;;;;;2.20;0.82;;;;;;;8.97;0.00;60892.56;4834400;28;20037;-87
2022/02/18 04:24:27;;;;;;;5.13;0.93;;;;;;;-145.06;0.00;60892.56;4836574;28;20045;-86
2022/02/18 04:27:06;;;;;;;1.98;0.60;;;;;;;-145.06;0.00;60892.56;4838122;28;20026;-87
2022/02/18 04:29:45;;;;;;;1.23;0.60;;;;;;;-145.06;0.00;60892.56;4839464;28;20397;-88
2022/02/18 04:32:24;;;;;;;2.20;0.80;;;;;;;-145.06;0.00;60892.56;4838737;28;20749;-88
2022/02/18 04:35:03;;;;;;;2.23;0.70;;;;;;;-145.06;0.00;60892.56;4841138;28;20014;-87
2022/02/18 04:37:43;;;;;;;0.63;0.45;;;;;;;-145.06;0.00;60892.56;4844334;28;20360;-87
2022/02/18 04:40:21;;;;;;;2.30;0.70;;;;;;;-145.06;0.00;60892.56;4830159;28;20037;-88
2022/02/18 04:43:00;;;;;;;2.83;0.82;;;;;;;-145.06;0.00;60892.56;4833064;28;20492;-88
2022/02/18 04:45:39;;;;;;;2.17;0.67;;;;;;;-145.06;0.00;60892.56;4849882;28;20033;-89
2022/02/18 04:48:18;;;;;;;2.57;0.77;;;;;;;-145.06;0.00;60892.56;4842798;28;20033;-87
2022/02/18 04:50:57;;;;;;;3.83;0.87;;;;;;;-145.06;0.00;60892.56;4834430;28;20121;-87
2022/02/18 04:53:37;;;;;;;3.38;1.10;;;;;;;-145.06;0.00;60892.56;4833934;28;20148;-87
2022/02/18 04:56:17;;;;;;;2.80;1.02;;;;;;;-145.06;0.00;60892.56;4838285;28;20046;-88
2022/02/18 04:58:56;;;;;;;3.55;1.38;;;;;;;-145.06;0.00;60892.56;4831659;28;20479;-89
2022/02/18 05:01:35;;;;;;;2.85;1.15;;;;;;;-145.06;0.00;60892.56;4836055;28;20030;-88
2022/02/18 05:04:14;;;;;;;3.67;1.70;;;;;;;-145.06;0.00;60892.56;4832588;28;20030;-88
2022/02/18 05:06:53;;;;;;;5.50;1.45;;;;;;;-145.06;0.00;60892.56;4831275;28;20029;-87
2022/02/18 05:09:33;;;;;;;5.30;1.35;;;;;;;-145.06;0.00;60892.56;4828997;28;20042;-87
2022/02/18 05:12:12;;;;;;;5.05;1.52;;;;;;;-145.06;0.00;60892.56;4828920;28;20030;-87
2022/02/18 05:14:51;;;;;;;4.85;1.40;;;;;;;9.12;0.00;60892.56;4824270;28;20109;-88
2022/02/18 05:17:30;;;;;;;8.27;1.55;;;;;;;9.22;0.00;60892.56;4827673;28;20449;-88
2022/02/18 05:20:09;;;;;;;5.27;1.47;;;;;;;-145.06;0.00;60892.56;4830191;28;20034;-87
2022/02/18 05:22:48;;;;;;;7.75;1.77;;;;;;;-145.06;0.00;60892.56;4829124;28;20034;-87
2022/02/18 05:25:27;;;;;;;7.17;1.83;;;;;;;-145.06;0.00;60892.56;4849089;28;20247;-88
2022/02/18 05:28:07;;;;;;;5.57;1.48;;;;;;;-145.06;0.00;60892.56;4832201;28;20257;-87
2022/02/18 05:30:46;;;;;;;3.47;1.55;;;;;;;-145.06;0.00;60892.56;4830417;28;20069;-87
2022/02/18 05:33:25;;;;;;;3.63;1.20;;;;;;;-145.06;0.00;60892.56;4830293;28;20037;-87
2022/02/18 05:36:04;;;;;;;3.45;1.20;;;;;;;-145.06;0.00;60892.56;4835012;28;20280;-88
2022/02/18 05:38:44;;;;;;;3.55;0.90;;;;;;;-145.06;0.00;60892.56;4832093;28;20066;-89
2022/02/18 05:41:23;;;;;;;4.72;1.13;;;;;;;-145.06;0.00;60892.56;4835349;28;20065;-89
2022/02/18 05:44:02;;;;;;;2.83;1.02;;;;;;;-145.06;0.00;60892.56;4835335;28;20033;-87
2022/02/18 05:46:41;;;;;;;6.20;1.33;;;;;;;-145.06;0.00;60892.56;4835280;28;20506;-88
2022/02/18 05:49:20;;;;;;;4.43;1.30;;;;;;;-145.06;0.00;60892.56;4834733;28;20290;-89
2022/02/18 05:51:59;;;;;;;3.72;1.40;;;;;;;-145.06;0.00;60892.56;4829160;28;20026;-89
2022/02/18 05:54:38;;;;;;;4.10;1.23;;;;;;;-145.06;0.00;60892.56;4837775;28;20061;-88
2022/02/18 05:57:17;;;;;;;5.13;1.27;;;;;;;-145.06;0.00;60892.56;4832968;28;20038;-89
2022/02/18 05:59:56;;;;;;;4.70;1.00;;;;;;;-145.06;0.00;60892.56;4841282;28;20033;-88
2022/02/18 06:02:35;;;;;;;2.05;0.80;;;;;;;9.24;0.00;60892.56;4843091;28;20276;-89
2022/02/18 06:05:14;;;;;;;2.67;1.00;;;;;;;9.28;0.00;60892.56;4833604;28;20033;-86
2022/02/18 06:07:53;;;;;;;4.15;1.33;;;;;;;9.30;0.00;60892.56;4848607;28;20377;-88
2022/02/18 06:10:35;;;;;;;3.63;0.90;;;;;;;9.29;0.00;60892.56;4824970;28;20033;-88
2022/02/18 06:13:14;;;;;;;3.17;0.90;;;;;;;9.38;0.00;60892.56;4831660;28;20105;-88
2022/02/18 06:15:53;;;;;;;2.47;0.90;;;;;;;9.30;0.00;60892.56;4833213;28;20034;-87
2022/02/18 06:18:32;;;;;;;2.83;0.88;;;;;;;9.30;0.00;60892.56;4831849;28;20394;-87
2022/02/18 06:21:11;;;;;;;2.40;0.73;;;;;;;9.31;0.00;60892.56;4832219;28;20034;-88
2022/02/18 06:23:50;;;;;;;2.07;1.00;;;;;;;-145.06;0.00;60892.56;4828749;28;20105;-89
2022/02/18 06:26:29;;;;;;;2.78;0.80;;;;;;;-145.06;0.00;60892.56;4845644;28;20038;-89
2022/02/18 06:29:08;;;;;;;2.37;1.03;;;;;;;9.33;0.00;60892.56;4839559;28;20045;-89
2022/02/18 06:31:47;;;;;;;3.37;1.00;;;;;;;-145.06;0.00;60892.56;4839955;28;20634;-88
2022/02/18 06:34:26;;;;;;;2.75;0.85;;;;;;;-145.06;0.00;60892.56;4835655;28;20037;-88
2022/02/18 06:37:06;;;;;;;2.65;1.10;;;;;;;-145.06;0.00;60892.56;4850586;28;20124;-88
2022/02/18 06:39:45;;;;;;;3.05;1.00;;;;;;;9.47;0.00;60892.56;4838717;28;20045;-88
2022/02/18 06:42:24;;;;;;;7.13;1.85;;;;;;;9.47;0.00;60892.56;4849214;28;20038;-89
2022/02/18 06:45:03;;;;;;;10.20;2.00;;;;;;;-145.06;0.00;60892.56;4838373;28;20030;-89
2022/02/18 06:47:42;;;;;;;3.55;1.35;;;;;;;-145.06;0.00;60892.56;4850431;28;20029;-88
2022/02/18 06:50:21;;;;;;;8.10;1.67;;;;;;;-145.06;0.00;60892.56;4837464;28;20073;-89
2022/02/18 06:53:01;;;;;;;4.37;1.23;;;;;;;-145.06;0.00;60892.56;4835228;28;20033;-89
2022/02/18 06:55:40;;;;;;;3.67;1.00;;;;;;;10.68;0.00;60892.56;4842157;28;20260;-89
2022/02/18 06:58:19;;;;;;;2.58;1.25;;;;;;;-145.06;0.00;60892.56;4838270;28;20045;-88
2022/02/18 07:00:58;;;;;;;6.13;1.60;;;;;;;-145.06;0.00;60892.56;4829636;28;20053;-88
2022/02/18 07:03:37;;;;;;;5.30;1.25;;;;;;;-145.06;0.00;60892.56;4837792;28;20528;-89
2022/02/18 07:06:16;;;;;;;3.38;1.20;;;;;;;-145.06;0.00;60892.56;4822553;28;20642;-89
2022/02/18 07:08:55;;;;;;;5.27;1.70;;;;;;;-145.06;0.00;60892.56;4832882;28;20030;-88
2022/02/18 07:11:34;;;;;;;3.00;1.00;;;;;;;-145.06;0.00;60892.56;4831072;28;20268;-89
2022/02/18 07:14:13;;;;;;;2.60;0.95;;;;;;;-145.06;0.00;60892.56;4838238;28;20265;-89
2022/02/18 07:16:52;;;;;;;2.05;0.95;;;;;;;-145.06;0.00;60892.56;4833522;28;20042;-89
2022/02/18 07:19:31;;;;;;;2.38;1.00;;;;;;;-145.06;0.00;60892.56;4823876;28;20029;-89
2022/02/18 07:22:10;;;;;;;2.25;0.95;;;;;;;10.07;0.00;60892.56;4831922;28;20066;-89
2022/02/18 07:24:50;;;;;;;2.57;1.00;;;;;;;-145.06;0.00;60892.56;4827036;28;20066;-89
2022/02/18 07:27:29;;;;;;;;;;;;;;;-145.06;0.00;60892.56;4839739;28;20668;-89
2022/02/18 07:30:09;;;;;;;2.37;0.93;;;;;;;-145.06;0.00;60892.56;4845705;28;19914;-89
2022/02/18 07:32:48;;;;;;;1.42;0.73;;;;;;;10.14;0.00;60892.56;4852142;28;20061;-88
2022/02/18 07:35:32;;;;;;;2.47;0.73;;;;;;;10.18;0.00;60892.56;4837664;28;20046;-89
2022/02/18 07:38:11;;;;;;;1.67;0.75;;;;;;;10.24;0.00;60892.56;4818687;28;20440;-89
2022/02/18 07:40:50;;;;;;;1.02;0.60;;;;;;;-145.06;0.00;60892.56;4818835;28;20022;-89
2022/02/18 07:43:29;;;;;;;1.08;0.60;;;;;;;10.36;0.00;60892.56;4818841;28;20030;-89
2022/02/18 07:46:08;;;;;;;2.40;0.70;;;;;;;10.43;0.00;60892.56;4841342;28;20317;-88
2022/02/18 07:48:47;;;;;;;1.98;0.90;;;;;;;-145.06;0.00;60892.56;4827974;28;20488;-88
2022/02/18 07:51:26;;;;;;;1.90;0.80;;;;;;;-145.06;0.00;60892.56;4838872;28;20018;-89
2022/02/18 07:54:06;;;;;;;0.88;0.57;;;;;;;-145.06;0.00;60892.56;4848759;28;20025;-88
2022/02/18 07:56:45;;;;;;;2.55;0.82;;;;;;;-145.06;0.00;60892.56;4831482;28;20488;-88
2022/02/18 07:59:24;;;;;;;1.55;0.47;;;;;;;-145.06;0.00;60892.56;4843720;28;20033;-88
2022/02/18 08:02:03;;;;;;;1.58;0.70;;;;;;;-145.06;0.00;60892.56;4824719;28;20030;-87
2022/02/18 08:04:42;;;;;;;0.70;0.40;;;;;;;-145.06;0.00;60892.56;4824416;28;20034;-88
2022/02/18 08:07:21;;;;;;;0.60;0.43;;;;;;;10.93;0.00;60892.56;4826476;28;20034;-88
2022/02/18 08:10:00;;;;;;;0.70;0.40;;;;;;;-145.06;0.00;60892.56;4832951;28;20592;-88
2022/02/18 08:12:39;;;;;;;2.40;0.60;;;;;;;-145.06;0.00;60892.56;4842488;28;20033;-89
2022/02/18 08:15:18;;;;;;;0.43;0.40;;;;;;;-145.06;0.00;60892.56;4834975;28;20049;-88
2022/02/18 08:17:57;;;;;;;0.43;0.32;;;;;;;-145.06;0.00;60892.56;4838724;28;20029;-88
2022/02/18 08:20:36;;;;;;;0.73;0.30;;;;;;;-145.06;0.00;60892.56;4865033;28;20061;-88
2022/02/18 08:23:15;;;;;;;0.60;0.30;;;;;;;-145.06;0.00;60892.56;4848221;28;20026;-88
2022/02/18 08:25:54;;;;;;;0.30;0.30;;;;;;;-145.06;0.00;60892.56;4841470;28;20042;-89
2022/02/18 08:28:33;;;;;;;0.45;0.30;;;;;;;-145.06;0.00;60892.56;4843428;28;20038;-89
2022/02/18 08:31:12;;;;;;;1.08;0.30;;;;;;;-145.06;0.00;60892.56;4824964;28;20030;-89
2022/02/18 08:33:51;;;;;;;0.80;0.30;;;;;;;-145.06;0.00;60892.56;4832869;28;20038;-88
2022/02/18 08:36:30;;;;;;;1.65;0.45;;;;;;;-145.06;0.00;60892.56;4824377;28;20612;-88
2022/02/18 08:39:09;;;;;;;0.30;0.27;;;;;;;-145.06;0.00;60892.56;4822047;28;20038;-87
2022/02/18 08:41:48;;;;;;;0.45;0.38;;;;;;;11.37;0.00;60892.56;4826589;28;20278;-90
2022/02/18 08:44:27;;;;;;;0.50;0.37;;;;;;;-145.06;0.00;60892.56;4840197;28;20037;-88
2022/02/18 08:47:07;;;;;;;0.60;0.40;;;;;;;-145.06;0.00;60892.56;4857279;28;20025;-89
2022/02/18 08:49:46;;;;;;;0.32;0.32;;;;;;;11.49;0.00;60892.56;4822670;28;20106;-89
2022/02/18 08:52:25;;;;;;;0.63;0.47;;;;;;;-145.06;0.00;60892.56;4821934;28;20021;-88
2022/02/18 08:55:07;;;;;;;0.90;0.43;;;;;;;-145.06;0.00;60892.56;4837346;28;20057;-90
2022/02/18 08:57:48;;;;;;;0.52;0.35;;;;;;;-145.06;0.00;60892.56;4836620;28;20030;-88
2022/02/18 09:00:27;;;;;;;;;;;;;;;11.70;0.00;60892.56;4827179;28;20030;-89
2022/02/18 09:03:06;;;;;;;0.85;0.30;;;;;;;11.73;0.00;60892.56;4845642;28;19918;-89
2022/02/18 09:05:45;;;;;;;0.75;0.40;;;;;;;11.77;0.00;60892.56;4828811;28;20034;-89
2022/02/18 09:08:25;;;;;;;0.40;0.30;;;;;;;21.08;0.00;60892.56;4818837;28;20037;-88
2022/02/18 09:11:04;;;;;;;0.30;0.30;;;;;;;-145.06;0.00;60892.56;4831215;28;20128;-88
2022/02/18 09:13:43;;;;;;;0.50;0.40;;;;;;;11.94;0.00;60892.56;4832046;28;20452;-89
2022/02/18 09:16:22;;;;;;;0.20;0.20;;;;;;;-145.06;0.00;60892.56;4817570;28;20488;-89
2022/02/18 09:19:01;;;;;;;0.30;0.20;;;;;;;-145.06;0.00;60892.56;4834611;28;20085;-88
2022/02/18 09:21:40;;;;;;;0.68;0.30;;;;;;;-145.06;0.00;60892.56;4817427;28;20045;-88
2022/02/18 09:24:19;;;;;;;0.35;0.28;;;;;;;-145.06;0.00;60892.56;4844379;28;20476;-90
2022/02/18 09:26:58;;;;;;;0.40;0.30;;;;;;;187.52;0.00;60892.56;4828224;28;20117;-89
2022/02/18 09:29:38;;;;;;;1.35;0.20;;;;;;;-145.06;0.00;60892.56;4833567;28;20046;-90
2022/02/18 09:32:17;;;;;;;0.87;0.30;;;;;;;-145.06;0.00;60892.56;4845871;28;20026;-89
2022/02/18 09:34:58;;;;;;;0.55;0.30;;;;;;;-145.06;0.00;60892.56;4860883;28;20038;-90
2022/02/18 09:37:38;;;;;;;0.60;0.47;;;;;;;-145.06;0.00;60892.56;4829473;28;20034;-89
2022/02/18 09:40:17;;;;;;;0.40;0.30;;;;;;;-145.06;0.00;60892.56;4839262;28;20380;-89
2022/02/18 09:42:58;;;;;;;0.20;0.20;;;;;;;-145.06;0.00;60892.56;4829076;28;20062;-89
2022/02/18 09:45:38;;;;;;;0.80;0.30;;;;;;;-145.06;0.00;60892.56;4860081;28;20033;-89
2022/02/18 09:48:17;;;;;;;0.70;0.30;;;;;;;-145.06;0.00;60892.56;4855032;28;20037;-89
2022/02/18 09:50:57;;;;;;;0.30;0.20;;;;;;;-145.06;0.00;60892.56;4836582;28;20038;-90
2022/02/18 09:53:36;;;;;;;0.20;0.20;;;;;;;-145.06;0.00;60892.56;4850069;28;20034;-90
2022/02/18 09:56:17;;;;;;;0.20;0.20;;;;;;;-145.06;0.00;60892.56;4825733;28;20265;-90
2022/02/18 09:59:02;;;;;;;0.20;0.20;;;;;;;-145.06;0.00;60892.56;4834533;28;20377;-91
2022/02/18 10:01:41;;;;;;;0.20;0.20;;;;;;;-145.06;0.00;60892.56;4844299;28;20026;-91
2022/02/18 10:04:20;;;;;;;0.20;0.20;;;;;;;-145.06;0.00;60892.56;4835412;28;20026;-90
2022/02/18 10:07:03;;;;;;;0.40;0.20;;;;;;;-145.06;0.00;60892.56;4851234;28;20109;-90
2022/02/18 10:09:45;;;;;;;0.20;0.20;;;;;;;-145.06;0.00;60892.56;4837815;28;20369;-89
2022/02/18 10:12:43;;;;;;;0.30;0.22;;;;;;;-145.06;0.00;60892.56;4830755;28;20105;-90
2022/02/18 10:15:22;;;;;;;0.52;0.20;;;;;;;-145.06;0.00;60892.56;4829243;28;20034;-89
2022/02/18 10:18:03;;;;;;;0.98;0.28;;;;;;;-145.06;0.00;60892.56;4824829;28;20054;-91
2022/02/18 10:20:43;;;;;;;0.40;0.20;;;;;;;-145.06;0.00;60892.56;4840673;28;20038;-90
2022/02/18 10:23:22;;;;;;;0.95;0.50;;;;;;;-145.06;0.00;60892.56;4833712;28;20030;-91
2022/02/18 10:26:02;;;;;;;0.30;0.20;;;;;;;-145.06;0.00;60892.56;4831651;28;20042;-90
2022/02/18 10:28:41;;;;;;;0.45;0.28;;;;;;;-145.06;0.00;60892.56;4856537;28;20048;-90
2022/02/18 10:31:21;;;;;;;0.77;0.40;;;;;;;-145.06;0.00;60892.56;4834931;28;20029;-90
2022/02/18 10:34:05;;;;;;;0.10;0.10;;;;;;;-145.06;0.00;60892.56;4840964;28;20033;-90
2022/02/18 10:36:45;;;;;;;0.10;0.10;;;;;;;-145.06;0.00;60892.56;4846865;28;20094;-91
2022/02/18 10:39:27;;;;;;;0.30;0.22;;;;;;;-145.06;0.00;60892.56;4822203;28;20038;-91
2022/02/18 10:42:06;;;;;;;0.40;0.20;;;;;;;15.88;0.00;60892.56;4834937;28;20370;-91
2022/02/18 10:44:45;;;;;;;0.15;0.15;;;;;;;-145.06;0.00;60892.56;4838748;28;20461;-90
2022/02/18 10:47:24;;;;;;;0.52;0.20;;;;;;;-145.06;0.00;60892.56;4848217;28;20038;-90
2022/02/18 10:50:36;;;;;;;0.43;0.20;;;;;;;-145.06;0.00;60892.56;4849627;28;20031;-91
2022/02/18 10:53:19;;;;;;;0.50;0.20;;;;;;;-145.06;0.00;60892.56;4811671;28;20034;-91
2022/02/18 10:56:01;;;;;;;0.10;0.10;;;;;;;-145.06;0.00;60892.56;4825961;28;20042;-91
2022/02/18 10:58:47;;;;;;;0.10;0.10;;;;;;;-145.06;0.00;60892.56;4821121;28;20361;-91
2022/02/18 11:01:27;;;;;;;0.30;0.20;;;;;;;-145.06;0.00;60892.56;4821508;28;20026;-92
2022/02/18 11:04:06;;;;;;;0.10;0.10;;;;;;;-145.06;0.00;60892.56;4821172;28;20038;-91
2022/02/18 11:06:45;;;;;;;0.50;0.20;;;;;;;-145.06;0.00;60892.56;4840724;28;20037;-90
2022/02/18 11:09:29;;;;;;;0.20;0.20;;;;;;;15.42;0.00;60892.56;4846256;28;20169;-91
2022/02/18 11:12:11;;;;;;;0.52;0.10;;;;;;;-145.06;0.00;60892.56;4836895;28;20766;-91
2022/02/18 11:14:53;;;;;;;0.10;0.10;;;;;;;-145.06;0.00;60892.56;4822864;28;20061;-91
2022/02/18 11:17:35;;;;;;;0.10;0.10;;;;;;;-145.06;0.00;60892.56;4830306;28;20026;-91
2022/02/18 11:20:15;;;;;;;0.17;0.17;;;;;;;-145.06;0.00;60892.56;4842343;28;20026;-91
2022/02/18 11:22:56;;;;;;;0.13;0.10;;;;;;;-145.06;0.00;60892.56;4859992;28;20030;-91
2022/02/18 11:25:36;;;;;;;0.15;0.15;;;;;;;-145.06;0.00;60892.56;4856283;28;20035;-92
2022/02/18 11:28:16;;;;;;;0.82;0.30;;;;;;;-145.06;0.00;60892.56;4823588;28;20026;-91
2022/02/18 11:31:06;;;;;;;0.13;0.10;;;;;;;-145.06;0.00;60892.56;4840104;28;20112;-91
2022/02/18 11:34:11;;;;;;;1.05;0.20;;;;;;;-145.06;0.00;60892.56;4842833;28;20096;-91
2022/02/18 11:37:15;;;;;;;0.30;0.20;;;;;;;-145.06;0.00;60892.56;4842020;28;20054;-89
2022/02/18 11:40:20;;;;;;;0.30;0.20;;;;;;;17.18;0.00;60892.56;4835337;28;20026;-92
2022/02/18 11:43:18;;;;;;;0.20;0.13;;;;;;;-145.06;0.00;60892.56;4825385;28;20381;-91
2022/02/18 11:46:00;;;;;;;0.10;0.10;;;;;;;-145.06;0.00;60892.56;4849455;28;20116;-90
2022/02/18 11:48:44;;;;;;;0.30;0.30;;;;;;;-145.06;0.00;60892.56;4839484;28;20101;-92
2022/02/18 11:51:26;;;;;;;0.30;0.13;;;;;;;-145.06;0.00;60892.56;4860620;28;20584;-91
2022/02/18 11:54:05;;;;;;;0.20;0.20;;;;;;;-145.06;0.00;60892.56;4859847;28;20373;-91
2022/02/18 11:56:53;;;;;;;0.43;0.20;;;;;;;-145.06;0.00;60892.56;4839655;28;20484;-90
2022/02/18 12:00:02;;;;;;;0.50;0.20;;;;;;;-145.06;0.00;60892.56;4827206;28;20030;-91
2022/02/18 12:02:48;;;;;;;0.55;0.30;;;;;;;-145.06;0.00;60892.56;4834671;28;20033;-92
2022/02/18 12:05:28;;;;;;;0.20;0.20;;;;;;;-145.06;0.00;60892.56;4838759;28;20568;-92
2022/02/18 12:08:07;;;;;;;0.10;0.10;;;;;;;-145.06;0.00;60892.56;4847789;28;20109;-91
2022/02/18 12:10:54;;;;;;;0.20;0.20;;;;;;;-145.06;0.00;60892.56;4825737;28;20041;-90
2022/02/18 12:13:53;;;;;;;0.20;0.13;;;;;;;-145.06;0.00;60892.56;4832224;28;20360;-91
2022/02/18 12:16:32;;;;;;;0.20;0.20;;;;;;;-145.06;0.00;60892.56;4826613;28;20085;-91
2022/02/18 12:19:14;;;;;;;0.43;0.30;;;;;;;15.52;0.00;60892.56;4833694;28;20030;-91
2022/02/18 12:21:56;;;;;;;0.47;0.20;;;;;;;-145.06;0.00;60892.56;4840165;28;20041;-90
2022/02/18 12:24:47;;;;;;;1.10;0.20;;;;;;;-145.06;0.00;60892.56;4835853;28;20026;-91
2022/02/18 12:27:29;;;;;;;0.75;0.30;;;;;;;-145.06;0.00;60892.56;4819468;28;20030;-88
2022/02/18 12:30:23;;;;;;;0.40;0.25;;;;;;;-145.06;0.00;60892.56;4843577;28;20030;-90